createdAt,value
2022-11-04T00:05:02.683Z,10.63
2022-11-04T00:10:07.033Z,11.27
2022-11-04T00:15:10.862Z,11.40
2022-11-04T00:20:14.379Z,12.02
2022-11-04T00:25:18.061Z,10.57
2022-11-04T00:30:21.519Z,11.55
2022-11-04T00:35:28.615Z,11.35
2022-11-04T00:40:32.743Z,11.57
2022-11-04T00:45:36.972Z,11.20
2022-11-04T00:50:40.361Z,11.68
2022-11-04T00:55:43.845Z,12.25
2022-11-04T01:00:47.211Z,11.80
2022-11-04T01:05:50.530Z,11.57
2022-11-04T01:10:54.071Z,11.45
2022-11-04T01:16:05.526Z,11.90
2022-11-04T01:21:12.176Z,11.65
2022-11-04T01:26:24.027Z,12.82
2022-11-04T01:31:29.825Z,11.93
2022-11-04T01:36:33.242Z,12.10
2022-11-04T01:41:36.689Z,12.40
2022-11-04T01:46:47.276Z,11.77
2022-11-04T01:51:54.884Z,11.50
2022-11-04T01:57:03.272Z,12.50
2022-11-04T02:02:08.056Z,13.75
2022-11-04T02:07:12.568Z,11.65
2022-11-04T02:12:16.246Z,13.15
2022-11-04T02:17:19.803Z,12.85
2022-11-04T02:22:40.046Z,14.60
2022-11-04T02:28:02.699Z,13.30
2022-11-04T02:33:17.984Z,12.85
2022-11-04T02:38:36.222Z,12.45
2022-11-04T02:43:52.482Z,11.60
2022-11-04T02:49:08.455Z,11.60
2022-11-04T02:54:20.371Z,12.45
2022-11-04T02:59:45.097Z,12.20
2022-11-04T03:04:51.944Z,10.88
2022-11-04T03:10:01.229Z,11.60
2022-11-04T03:15:14.101Z,10.57
2022-11-04T03:20:22.790Z,11.18
2022-11-04T03:25:31.300Z,10.20
2022-11-04T03:30:44.669Z,11.00
2022-11-04T03:35:57.630Z,10.18
2022-11-04T03:41:03.359Z,9.65
2022-11-04T03:46:06.889Z,10.57
2022-11-04T03:51:10.374Z,10.00
2022-11-04T03:56:32.287Z,10.20
2022-11-04T04:01:50.668Z,9.10
2022-11-04T04:07:03.239Z,9.82
2022-11-04T04:12:16.090Z,9.63
2022-11-04T04:17:48.240Z,9.60
2022-11-04T04:23:08.666Z,8.70
2022-11-04T04:28:15.238Z,10.10
2022-11-04T04:33:20.338Z,9.90
2022-11-04T04:38:26.180Z,10.25
2022-11-04T04:43:29.678Z,9.50
2022-11-04T04:48:35.918Z,11.48
2022-11-04T04:53:43.175Z,10.20
2022-11-04T04:58:47.085Z,9.85
2022-11-04T05:03:50.745Z,10.85
2022-11-04T05:19:01.386Z,9.52
2022-11-04T05:24:04.951Z,10.05
2022-11-04T05:29:10.105Z,9.63
2022-11-04T05:34:14.568Z,9.70
2022-11-04T05:39:18.420Z,9.45
2022-11-04T05:44:22.064Z,8.88
2022-11-04T05:49:25.623Z,8.38
2022-11-04T05:54:28.941Z,8.43
2022-11-04T05:59:32.166Z,7.57
2022-11-04T06:04:35.446Z,8.07
2022-11-04T06:09:38.700Z,9.07
2022-11-04T06:14:43.057Z,7.95
2022-11-04T06:19:47.072Z,8.00
2022-11-04T06:24:50.577Z,8.20
2022-11-04T06:29:54.476Z,7.95
2022-11-04T06:35:13.649Z,6.72
2022-11-04T06:40:20.755Z,7.82
2022-11-04T06:45:24.041Z,7.15
2022-11-04T06:50:28.045Z,7.68
2022-11-04T06:55:31.454Z,6.72
2022-11-04T07:00:34.623Z,8.38
2022-11-04T07:05:37.910Z,7.80
2022-11-04T07:10:41.922Z,6.68
2022-11-04T07:15:46.302Z,6.70
2022-11-04T07:20:49.612Z,7.63
2022-11-04T07:25:53.081Z,7.00
2022-11-04T07:30:58.168Z,6.65
2022-11-04T07:36:11.223Z,7.50
2022-11-04T07:41:15.223Z,7.22
2022-11-04T07:46:19.995Z,7.90
2022-11-04T07:51:26.532Z,9.18
2022-11-04T07:56:34.389Z,6.80
2022-11-04T08:01:37.908Z,7.07
2022-11-04T08:06:41.402Z,6.47
2022-11-04T08:11:45.165Z,6.93
2022-11-04T08:16:50.919Z,8.00
2022-11-04T08:21:54.534Z,6.15
2022-11-04T08:26:57.832Z,7.40
2022-11-04T08:32:02.871Z,6.18
2022-11-04T08:37:13.269Z,6.60
2022-11-04T08:42:16.476Z,7.35
2022-11-04T08:47:19.767Z,6.65
2022-11-04T08:52:23.132Z,6.13
2022-11-04T08:57:26.527Z,7.43
2022-11-04T09:02:29.907Z,6.13
2022-11-04T09:07:33.471Z,5.97
2022-11-04T09:12:37.279Z,6.40
2022-11-04T09:17:41.204Z,6.25
2022-11-04T09:22:45.953Z,5.95
2022-11-04T09:27:49.670Z,9.02
2022-11-04T09:32:53.154Z,6.10
2022-11-04T09:37:56.419Z,5.75
2022-11-04T09:43:14.946Z,7.28
2022-11-04T09:48:42.190Z,7.75
2022-11-04T09:53:47.970Z,6.60
2022-11-04T09:58:54.607Z,6.97
2022-11-04T10:04:03.721Z,5.85
2022-11-04T10:09:39.221Z,5.60
2022-11-04T10:14:48.956Z,5.32
2022-11-04T10:19:55.519Z,4.85
2022-11-04T10:25:14.180Z,5.68
2022-11-04T10:30:23.968Z,5.93
2022-11-04T10:36:05.960Z,5.07
2022-11-04T10:41:24.805Z,4.70
2022-11-04T10:51:57.116Z,4.95
2022-11-04T10:57:02.757Z,4.28
2022-11-04T11:02:06.847Z,3.97
2022-11-04T11:07:13.170Z,3.60
2022-11-04T11:12:48.714Z,3.17
2022-11-04T11:17:40.186Z,3.75
2022-11-04T11:22:46.162Z,3.63
2022-11-04T11:27:58.575Z,3.65
2022-11-04T11:38:19.033Z,3.47
2022-11-04T11:43:32.285Z,3.20
2022-11-04T11:48:44.185Z,3.03
2022-11-04T11:54:07.673Z,3.15
2022-11-04T12:10:52.008Z,2.97
2022-11-04T12:16:13.780Z,2.70
2022-11-04T12:21:26.860Z,2.72
2022-11-04T12:27:04.709Z,2.70
2022-11-04T12:32:17.195Z,3.45
2022-11-04T12:37:23.448Z,2.72
2022-11-04T12:42:38.789Z,2.65
2022-11-04T12:47:45.466Z,3.00
2022-11-04T12:53:27.484Z,3.00
2022-11-04T12:58:36.620Z,3.55
2022-11-04T13:03:51.023Z,2.90
2022-11-04T13:09:17.748Z,3.20
2022-11-04T13:14:26.910Z,3.78
2022-11-04T13:19:34.292Z,2.78
2022-11-04T13:24:49.386Z,2.95
2022-11-04T13:30:17.768Z,2.90
2022-11-04T13:35:33.198Z,2.90
2022-11-04T13:40:50.232Z,2.85
2022-11-04T13:45:56.023Z,3.80
2022-11-04T13:51:13.434Z,4.03
2022-11-04T13:56:45.841Z,3.33
2022-11-04T14:07:01.734Z,3.63
2022-11-04T14:12:11.044Z,3.42
2022-11-04T14:17:33.095Z,3.50
2022-11-04T14:22:38.094Z,3.70
2022-11-04T14:27:41.765Z,3.78
2022-11-04T14:32:45.279Z,3.63
2022-11-04T14:37:55.898Z,3.67
2022-11-04T14:43:00.255Z,3.63
2022-11-04T14:48:18.459Z,3.92
2022-11-04T14:53:37.418Z,4.75
2022-11-04T14:59:02.191Z,3.80
2022-11-04T15:04:31.806Z,4.18
2022-11-04T15:09:41.515Z,4.68
2022-11-04T15:14:45.189Z,4.63
2022-11-04T15:19:52.541Z,4.38
2022-11-04T15:24:57.139Z,4.55
2022-11-04T15:30:03.617Z,5.18
2022-11-04T15:35:13.255Z,4.57
2022-11-04T15:40:17.499Z,4.55
2022-11-04T15:45:28.752Z,4.15
2022-11-04T15:50:32.162Z,4.32
2022-11-04T15:55:37.879Z,5.00
2022-11-04T16:00:43.526Z,4.35
2022-11-04T16:06:02.503Z,4.35
2022-11-04T16:11:19.016Z,4.40
2022-11-04T16:16:28.014Z,4.35
2022-11-04T16:21:35.357Z,3.90
2022-11-04T16:26:42.032Z,4.38
2022-11-04T16:31:45.338Z,4.03
2022-11-04T16:36:48.494Z,4.53
2022-11-04T16:41:52.041Z,4.50
2022-11-04T16:46:55.999Z,3.83
2022-11-04T16:52:03.302Z,4.57
2022-11-04T16:57:06.964Z,4.20
2022-11-04T17:02:36.726Z,4.95
2022-11-04T17:07:52.892Z,3.95
2022-11-04T17:12:58.849Z,3.38
2022-11-04T17:18:02.301Z,4.45
2022-11-04T17:23:05.653Z,4.20
2022-11-04T17:33:17.521Z,3.53
2022-11-04T17:38:21.423Z,4.45
2022-11-04T17:43:25.869Z,3.53
2022-11-04T17:48:29.180Z,3.45
2022-11-04T17:53:32.283Z,3.83
2022-11-04T18:03:38.940Z,2.95
2022-11-04T18:08:42.541Z,3.60
2022-11-04T18:13:45.792Z,3.33
2022-11-04T18:18:49.528Z,3.53
2022-11-04T18:23:54.611Z,4.95
2022-11-04T18:28:58.625Z,3.65
2022-11-04T18:34:06.871Z,4.35
2022-11-04T18:39:13.837Z,4.22
2022-11-04T18:44:19.598Z,4.00
2022-11-04T18:49:22.915Z,4.13
2022-11-04T18:59:29.066Z,5.40
2022-11-04T19:04:33.359Z,4.55
2022-11-04T19:09:46.645Z,4.03
2022-11-04T19:14:50.981Z,4.15
2022-11-04T19:19:54.229Z,4.18
2022-11-04T19:24:57.788Z,4.43
2022-11-04T19:30:01.049Z,4.10
2022-11-04T19:35:09.058Z,4.20
2022-11-04T19:40:14.722Z,4.72
2022-11-04T19:45:18.654Z,4.18
2022-11-04T19:50:22.486Z,4.72
2022-11-04T19:55:25.855Z,5.00
2022-11-04T20:00:33.187Z,4.65
2022-11-04T20:05:38.738Z,4.90
2022-11-04T20:10:43.353Z,5.35
2022-11-04T20:15:46.941Z,5.28
2022-11-04T20:20:50.396Z,4.97
2022-11-04T20:25:53.746Z,5.05
2022-11-04T20:30:56.936Z,4.38
2022-11-04T20:36:03.313Z,5.45
2022-11-04T20:41:09.374Z,4.72
2022-11-04T20:46:21.493Z,5.40
2022-11-04T20:51:28.206Z,5.17
2022-11-04T20:56:33.945Z,3.92
2022-11-04T21:01:43.882Z,5.53
2022-11-04T21:06:50.036Z,5.10
2022-11-04T21:11:53.549Z,4.55
2022-11-04T21:16:59.173Z,4.78
2022-11-04T21:22:05.133Z,4.93
2022-11-04T21:27:11.794Z,4.70
2022-11-04T21:32:15.079Z,5.57
2022-11-04T21:42:21.301Z,4.70
2022-11-04T21:52:28.002Z,4.47
2022-11-04T21:57:31.553Z,5.18
2022-11-04T22:02:37.521Z,6.07
2022-11-04T22:07:41.485Z,5.20
2022-11-04T22:12:50.976Z,5.15
2022-11-04T22:17:55.017Z,4.80
2022-11-04T22:22:58.681Z,5.82
2022-11-04T22:28:01.987Z,5.78
2022-11-04T22:33:05.403Z,4.88
2022-11-04T22:43:12.638Z,5.70
2022-11-04T22:48:16.366Z,5.47
2022-11-04T22:53:19.692Z,5.20
2022-11-04T22:58:22.961Z,5.10
2022-11-04T23:08:31.009Z,4.95
2022-11-04T23:13:34.301Z,5.32
2022-11-04T23:18:37.909Z,5.30
2022-11-04T23:23:41.199Z,4.57
2022-11-04T23:28:44.458Z,5.05
2022-11-04T23:33:47.941Z,4.45
2022-11-04T23:38:51.464Z,5.10
2022-11-04T23:43:55.496Z,5.18
2022-11-04T23:48:59.006Z,4.70
2022-11-04T23:54:02.257Z,4.82
